Flight Track Log - Related Links

Times and Time Zones

All times are in EDT time to prevent confusion due to time zone crossing. See the JBU56 flight status page for this flight to view local times or setup timezone preferences in your user account.

Time Position Orientation Groundspeed Altitude Reporting Facility
EDT Latitude Longitude Course Direction KTS MPH feet Rate Location/Type
Mon 08:41:56 AM 38.9500 -77.5000 57° Northeast 165 190 1,200  Level Potomac TRACON
Mon 08:42:51 AM 38.9833 -77.5500 311° West 221 254 2,600 2,035 Climbing Potomac TRACON
Mon 08:43:51 AM 39.0500 -77.6000 330° Northwest 296 341 5,100 2,950 Climbing Potomac TRACON
Mon 08:44:51 AM 39.1333 -77.5667 17° North 323 372 8,500 2,430 Climbing Potomac TRACON
Mon 08:45:00 AM 39.0339 -76.9297 78° East  Level FlightAware Approximate
Mon 08:45:52 AM 39.1500 -77.4500 80° East 336 387 10,000  Level Potomac TRACON
Mon 08:46:00 AM 39.0566 -76.7940 78° East  Level FlightAware Approximate
Mon 08:47:00 AM 39.0709 -76.6581 57° Northeast  Level FlightAware Approximate
Mon 08:47:51 AM 39.1406 -77.2172 93° East 360 414 10,500  Level Washington Center
Mon 08:48:51 AM 39.1008 -77.0956 113° Southeast 364 419 12,900 2,496 Climbing Washington Center
Mon 08:49:56 AM 39.0894 -76.9633 96° East 388 447 15,700 2,381 Climbing Washington Center
Mon 08:50:57 AM 39.1028 -76.8236 83° East 390 449 17,900 2,115 Climbing Washington Center
Mon 08:51:58 AM 39.1139 -76.6778 84° East 406 467 20,000 2,129 Climbing Washington Center
Mon 08:53:01 AM 39.1300 -76.4972 83° East 421 484 22,300 1,417 Climbing Washington Center
Mon 08:54:05 AM 39.1425 -76.3406 84° East 436 502 23,000 336 Climbing Washington Center
Mon 08:55:06 AM 39.1553 -76.1817 84° East 444 511 23,000 347 Level Washington Center
Mon 08:56:06 AM 39.1742 -76.0314 81° East 445 512 23,700 1,016 Climbing Washington Center
Mon 08:57:10 AM 39.2050 -75.8742 76° East 462 532 25,100 1,606 Climbing Washington Center
Mon 08:58:13 AM 39.3153 -75.7228 47° Northeast 472 543 27,100 1,645 Climbing Washington Center
Mon 08:59:14 AM 39.4086 -75.6019 45° Northeast 474 545 28,500 1,500 Climbing Washington Center
Mon 09:00:17 AM 39.5083 -75.4725 45° Northeast 475 547 30,200 1,220 Climbing Washington Center
Mon 09:01:17 AM 39.5994 -75.3525 45° Northeast 470 541 31,000 393 Climbing Washington Center
Mon 09:02:19 AM 39.7000 -75.2128 47° Northeast 493 567 31,000  Level Washington Center
Mon 09:03:22 AM 39.7931 -75.0828 47° Northeast 495 570 31,000  Level Washington Center
Mon 09:04:23 AM 39.8919 -74.9419 48° Northeast 493 567 31,000  Level Washington Center
Mon 09:05:27 AM 39.9850 -74.8094 47° Northeast 495 570 31,000  Level Washington Center
Mon 09:06:28 AM 40.0844 -74.6672 48° Northeast 494 568 31,000  Level Washington Center
Mon 09:07:32 AM 40.1767 -74.5342 48° Northeast 493 567 31,000  Level Washington Center
Mon 09:08:33 AM 40.2772 -74.4194 41° Northeast 486 559 31,000  Level Washington Center
Mon 09:09:38 AM 40.3967 -74.2864 40° Northeast 482 555 31,000  Level New York Center
Mon 09:10:38 AM 40.5003 -74.1717 40° Northeast 487 560 31,000  Level New York Center
Mon 09:11:38 AM 40.5731 -74.0225 57° Northeast 482 555 31,000  Level New York Center
Mon 09:13:42 AM 40.6858 -73.6933 66° East 498 573 31,000 -670 Level Washington Center
Mon 09:14:46 AM 40.7750 -73.5628 48° Northeast 483 556 28,900 -2,081 Descending Washington Center
Mon 09:15:46 AM 40.8617 -73.4364 48° Northeast 470 541 26,700 -1,824 Descending Washington Center
Mon 09:16:51 AM 40.9469 -73.3114 48° Northeast 454 522 25,100 -1,619 Descending Boston Center
Mon 09:17:52 AM 41.0478 -73.1639 48° Northeast 455 524 23,300 -1,033 Descending Boston Center
Mon 09:18:53 AM 41.1183 -73.0319 55° Northeast 446 513 23,000 -148 Descending Boston Center
Mon 09:19:54 AM 41.1739 -72.8828 64° Northeast 447 514 23,000  Level Boston Center
Mon 09:20:55 AM 41.2303 -72.7383 63° Northeast 447 514 23,000  Level Boston Center
Mon 09:21:56 AM 41.2903 -72.5825 63° Northeast 447 514 23,000  Level Boston Center
Mon 09:22:57 AM 41.3450 -72.4372 63° Northeast 443 510 23,000  Level Boston Center
Mon 09:23:58 AM 41.4028 -72.2917 62° Northeast 443 510 23,000  Level Boston Center
Mon 09:25:00 AM 41.4603 -72.1461 62° Northeast 444 511 23,000  Level Boston Center
Mon 09:26:01 AM 41.5175 -72.0000 62° Northeast 444 511 23,000 -148 Level Boston Center
Mon 09:27:02 AM 41.5681 -71.8681 63° Northeast 442 509 22,700 -1,475 Descending Boston Center
Mon 09:28:03 AM 41.6347 -71.6992 62° Northeast 431 496 20,000 -2,459 Descending Boston Center
Mon 09:29:04 AM 41.6867 -71.5619 63° Northeast 416 479 17,700 -2,164 Descending Boston Center
Mon 09:30:05 AM 41.7414 -71.4219 62° Northeast 397 457 15,600 -2,016 Descending Boston Center
Mon 09:31:06 AM 41.7892 -71.2978 63° Northeast 379 436 13,600 -1,918 Descending Boston Center
Mon 09:32:07 AM 41.8353 -71.1775 63° Northeast 366 421 11,700 -1,279 Descending Boston Center
Mon 09:33:08 AM 41.8825 -71.0639 61° Northeast 351 404 11,000 -344 Descending Boston Center
Mon 09:34:09 AM 41.9339 -70.9425 60° Northeast 348 400 11,000  Level Boston Center
Mon 09:35:10 AM 41.9831 -70.8297 60° Northeast 349 402 11,000 -246 Level Boston Center
Mon 09:36:11 AM 42.0264 -70.7406 57° Northeast 333 383 10,500 -1,131 Descending Boston Center
Mon 09:37:12 AM 42.0853 -70.6497 49° Northeast 326 375 8,700 -1,623 Descending Boston Center
Mon 09:38:13 AM 42.1653 -70.5989 25° Northeast 326 375 7,200 -1,328 Descending Boston Center
Mon 09:39:14 AM 42.2492 -70.5758 11° North 312 359 6,000 -1,082 Descending Boston Center
Mon 09:40:15 AM 42.3461 -70.5819 357° North 305 351 5,000 -492 Descending Boston Center
Mon 09:41:16 AM 42.4017 -70.6469 319° Northwest 282 325 5,000  Level Boston Center
Mon 09:42:17 AM 42.4658 -70.7142 322° Northwest 280 322 5,000 -197 Level Boston Center
Mon 09:43:18 AM 42.5258 -70.7781 322° Northwest 279 321 4,600 -393 Descending Boston Center
Mon 09:44:19 AM 42.5858 -70.8369 324° Northwest 260 299 4,200 -295 Descending Boston Center
Mon 09:45:20 AM 42.5756 -70.8928 256° West 162 186 4,000 -295 Descending Boston Center
Mon 09:46:21 AM 42.5406 -70.9197 210° Southwest 145 167 3,600 -590 Descending Boston Center
Mon 09:47:22 AM 42.5050 -70.9367 199° South 139 160 2,800 -732 Descending Boston Center
Mon 09:48:24 AM 42.4700 -70.9544 201° Southwest 135 155 2,100 -732 Descending Boston Center
Mon 09:49:25 AM 42.4325 -70.9731 200° South 142 163 1,300 -689 Descending Boston Center
Mon 09:50:26 AM 42.4028 -70.9864 198° South 119 137 700 -344 Descending Boston Center
Mon 09:51:27 AM 42.3731 -70.9986 197° South 119 137 600 -98 Descending Boston Center

Login

Don't have an account? Register now (free) for customized features, flight alerts, and more!